15:29
Airports
History
Links
Donate
Help keep this website running!
PayPal
Bitcoin
This page is community maintained. The information is intended for PC simulator navigation or reference.
Always use approved charts for navigation.
AL3
Douglas Lake
Douglas Lake (AL3)
Douglas Lake, British Columbia, Canada
(U)
Lat/Lng:50° 9' 60" N / 120° 10' 59.99" W
50.166666 / -120.183331
Elevation:2700'ft / 823mMSL
ID / ICAO:AL3
Runways:1
Longest:08-26
Asphalt 1,400m / 4,594ft
Nearby Weather15:00 GMT 2018-02-19
Nearby weather at CYLW, Kelowna located 38.6 nautical miles from AL3
Altimeter: 30.21
Visibility: 9.0 statute miles
Wind: 3 knots (from 010°)
Temp: -19°c / -2°f
Humidity: 84.1%

METAR: CYLW 191500Z AUTO 01003KT 9SM CLR M19/M21 A3021 RMK SLP267

(Powered by phpweather)
Airport Radio Frequencies
CTAF: 123.2
Nearby VORs <50NM
Nearby NDBs
Runway 08 / 26
Dimensions:1400.1 x 12.2m 4594' x 40'ft
Surface:Asphalt
Runway 08 [A]Runway 26 [B]
Heading:100°TH 280°TH
Lat:
Lng:
50° 10' 4"N
120° 11' 34.98"W
50° 9' 55.99"N
120° 10' 25"W
User Notes and Comments
50° 9' 60" N / 120° 10' 59.99" W
Distance To
Airport ID:
Nearby Airports
(U) Merritt 25.2 NM
AD5 W 262°
(U) VERNON 38.1 NM
CYVK E 81°
(C) Kelowna 38.6 NM
CYLW ( WX ) ESE 112°
(U) Kamloops 38.7 NM
CYKA ( WX ) NNW 342°
(U) PRINCETON 50.5 NM
CYDC ( WX ) SSW 196°
(U) Penticton 55.1 NM
CYYF ( WX ) SSE 151°
(U) SALMON ARM 55.1 NM
CZAM NE 49°
VFR Chart
Flight Planning at SkyVector.com